Leoma, TN (38468)

01:20 AM CDT die 22o October, anno 2014 (GMT -0500)
WLX Radio Studios | Change Station
CLOSE
Current Station
Personal Weather Stations
Location: Lawrenceburg, TN
Elevation: 932 ft
Nearby Weather Stations

Elev 932 ft 35.25 °N, 87.33 °W | Updated 4 minutes ago

Serena
Serena
51.5 °F
Feels Like 51.5 °F
N
4.0
Ventus Variabilis Ventus from Magis Aquilo quam Eurus
Gusts 7.0 mph

Hodie
High -- | Low -- °F
--% Chance of Precip.
Yesterday
High -- | Low -- °F
Precip. -- in
7:01 AM 6:05 PM
Waning Crescent, 3% visible
Pressio 30.10 in
Visibilitas 10.0 milia passuum
Clouds Serena
Frigus in quo Ros apparet 45 °F
Umor 78%
Rainfall 0.00 in
Snow Depth Not available.
UV 0 out of 12
Pollen 2.20 out of 12
Air Quality Not available.
Flu Activity Sporadic
METAR KMSL 220553Z AUTO 05007KT 10SM CLR 14/07 A3011 RMK AO2 SLP191 T01440072 10178 20117 402500078 53003 $

More Conditions Fewer Conditions

Pressio 30.10 in
Visibilitas 10.0 milia passuum
Clouds Serena
Frigus in quo Ros apparet 45 °F
Umor 78%
Rainfall 0.00 in
Snow Depth Not available.
UV 0 out of 12
Pollen 2.20 out of 12
Air Quality Not available.
Flu Activity Sporadic
METAR KMSL 220553Z AUTO 05007KT 10SM CLR 14/07 A3011 RMK AO2 SLP191 T01440072 10178 20117 402500078 53003 $

More Conditions Fewer Conditions

10-Day Weather Forecast

Almanac

Astronomy

Oct. 22, 2014 Rise Set
Actual Time 7:01 AM CDT 6:05 PM CDT
Civil Twilight 6:35 AM CDT 6:31 PM CDT
Nautical Twilight 6:06 AM CDT 7:00 PM CDT
Astronomical Twilight 5:36 AM CDT 7:30 PM CDT
Moon 5:45 AM CDT 5:30 PM CDT
Length Of Visible Light 11h 55m
Length of Day
11h 04m
Tomorrow will be 2m 3s shorter.
Waning Crescent, 3% of the Moon is Illuminated
Hodie
Waning Crescent
Oct 23
New
Oct 30
First Quarter
Nov 6
Full
Nov 14
Last Quarter

Today's Extremes

State Highs State Lows

Community

WunderPhotos

Upload Photos

1,763,885 photos uploaded!

Nearby

Snow Depth

Station Depth Elevation
No new snow has been reported.

Earthquake Activity

City Distance Mag. Time & Date
No recent earthquake activity has been reported nearby.
Minimum magnitude displayed is 2.5.

Coastal Water Temperatures

Locus Calor
No Stations Reporting

Nearby Weather Stations